createdAt,value
2019-04-25T00:01:11.627Z,13.60
2019-04-25T00:04:21.563Z,13.02
2019-04-25T00:07:28.603Z,12.91
2019-04-25T00:10:35.423Z,12.77
2019-04-25T00:13:43.143Z,13.47
2019-04-25T00:16:53.118Z,13.36
2019-04-25T00:20:01.601Z,12.52
2019-04-25T00:23:15.008Z,13.40
2019-04-25T00:26:53.622Z,12.92
2019-04-25T00:30:01.550Z,13.22
2019-04-25T00:33:11.605Z,13.03
2019-04-25T00:36:18.200Z,13.25
2019-04-25T00:39:24.836Z,12.89
2019-04-25T00:42:32.028Z,12.81
2019-04-25T00:45:38.861Z,12.94
2019-04-25T00:48:45.803Z,12.65
2019-04-25T00:51:53.255Z,12.63
2019-04-25T00:55:01.730Z,13.37
2019-04-25T00:58:18.136Z,12.64
2019-04-25T01:01:41.741Z,12.52
2019-04-25T01:04:49.478Z,12.70
2019-04-25T01:07:55.965Z,12.53
2019-04-25T01:11:02.482Z,12.80
2019-04-25T01:14:08.986Z,12.37
2019-04-25T01:17:16.523Z,12.65
2019-04-25T01:20:24.023Z,12.15
2019-04-25T01:23:31.097Z,12.11
2019-04-25T01:26:37.743Z,11.66
2019-04-25T01:29:44.552Z,11.48
2019-04-25T01:32:51.142Z,11.61
2019-04-25T01:36:03.494Z,11.78
2019-04-25T01:39:34.169Z,11.75
2019-04-25T01:42:51.566Z,10.43
2019-04-25T01:45:58.362Z,11.22
2019-04-25T01:49:05.145Z,10.17
2019-04-25T01:52:13.570Z,10.98
2019-04-25T01:55:23.466Z,11.06
2019-04-25T01:58:30.282Z,11.26
2019-04-25T02:01:38.538Z,11.23
2019-04-25T02:04:45.176Z,11.12
2019-04-25T02:07:52.936Z,10.68
2019-04-25T02:11:14.211Z,10.69
2019-04-25T02:14:23.593Z,10.14
2019-04-25T02:17:30.403Z,10.19
2019-04-25T02:20:37.060Z,10.46
2019-04-25T02:23:44.216Z,10.57
2019-04-25T02:26:53.235Z,10.16
2019-04-25T02:29:59.286Z,10.39
2019-04-25T02:33:09.001Z,9.92
2019-04-25T02:36:15.045Z,10.09
2019-04-25T02:39:24.422Z,10.15
2019-04-25T02:42:30.815Z,10.87
2019-04-25T02:45:57.110Z,10.15
2019-04-25T02:49:29.730Z,8.43
2019-04-25T02:52:44.214Z,8.75
2019-04-25T02:55:50.367Z,9.37
2019-04-25T02:58:58.329Z,10.32
2019-04-25T03:02:08.742Z,9.99
2019-04-25T03:05:14.947Z,10.44
2019-04-25T03:08:22.192Z,10.04
2019-04-25T03:11:29.915Z,10.00
2019-04-25T03:14:36.435Z,10.28
2019-04-25T03:17:44.480Z,9.94
2019-04-25T03:21:13.882Z,9.79
2019-04-25T03:24:17.794Z,10.50
2019-04-25T03:27:25.358Z,9.85
2019-04-25T03:30:35.309Z,10.16
2019-04-25T03:33:40.624Z,10.13
2019-04-25T03:36:47.095Z,10.09
2019-04-25T03:39:56.656Z,10.22
2019-04-25T03:43:04.803Z,10.32
2019-04-25T03:46:12.746Z,10.35
2019-04-25T03:49:19.747Z,10.71
2019-04-25T03:52:26.216Z,10.42
2019-04-25T03:55:35.577Z,10.37
2019-04-25T03:58:40.879Z,10.25
2019-04-25T04:01:47.769Z,10.04
2019-04-25T04:04:54.229Z,10.15
2019-04-25T04:08:00.978Z,9.89
2019-04-25T04:11:08.691Z,10.12
2019-04-25T04:14:15.761Z,9.88
2019-04-25T04:17:37.262Z,9.43
2019-04-25T04:21:09.125Z,9.45
2019-04-25T04:24:19.798Z,9.81
2019-04-25T04:27:29.105Z,9.67
2019-04-25T04:30:35.661Z,9.23
2019-04-25T04:33:43.129Z,9.57
2019-04-25T04:36:49.761Z,9.64
2019-04-25T04:39:56.493Z,9.40
2019-04-25T04:43:04.436Z,9.33
2019-04-25T04:46:12.101Z,9.46
2019-04-25T04:49:19.773Z,9.86
2019-04-25T04:52:26.262Z,10.07
2019-04-25T04:55:34.245Z,9.91
2019-04-25T04:58:40.834Z,10.00
2019-04-25T05:02:05.822Z,9.80
2019-04-25T05:05:30.533Z,9.69
2019-04-25T05:08:49.614Z,9.95
2019-04-25T05:11:56.322Z,10.33
2019-04-25T05:15:03.764Z,10.67
2019-04-25T05:18:15.590Z,10.61
2019-04-25T05:21:22.581Z,10.79
2019-04-25T05:24:29.126Z,10.98
2019-04-25T05:27:46.326Z,11.20
2019-04-25T05:30:53.532Z,11.32
2019-04-25T05:34:00.090Z,11.51
2019-04-25T05:37:06.769Z,11.63
2019-04-25T05:40:15.123Z,11.59
2019-04-25T05:43:23.673Z,11.48
2019-04-25T05:46:30.101Z,11.31
2019-04-25T05:49:36.697Z,11.31
2019-04-25T05:52:43.913Z,11.32
2019-04-25T05:55:51.650Z,11.13
2019-04-25T05:58:58.143Z,11.61
2019-04-25T06:02:04.974Z,11.88
2019-04-25T06:05:13.082Z,12.18
2019-04-25T06:08:21.400Z,12.32
2019-04-25T06:11:51.289Z,12.42
2019-04-25T06:14:57.860Z,12.72
2019-04-25T06:18:24.839Z,12.78
2019-04-25T06:21:35.689Z,12.83
2019-04-25T06:24:47.192Z,12.95
2019-04-25T06:27:57.274Z,13.16
2019-04-25T06:31:10.064Z,13.14
2019-04-25T06:34:14.081Z,13.14
2019-04-25T06:37:21.341Z,13.23
2019-04-25T06:40:30.586Z,13.21
2019-04-25T06:43:38.450Z,13.33
2019-04-25T06:47:00.376Z,13.56
2019-04-25T06:50:07.288Z,13.75
2019-04-25T06:53:13.855Z,13.76
2019-04-25T06:56:21.177Z,13.81
2019-04-25T06:59:28.896Z,14.32
2019-04-25T07:02:35.644Z,14.29
2019-04-25T07:05:43.955Z,14.46
2019-04-25T07:08:50.565Z,14.80
2019-04-25T07:11:57.236Z,15.13
2019-04-25T07:15:03.987Z,15.40
2019-04-25T07:18:10.676Z,15.49
2019-04-25T07:21:17.313Z,15.82
2019-04-25T07:24:25.971Z,16.01
2019-04-25T07:27:53.436Z,16.51
2019-04-25T07:31:18.132Z,16.48
2019-04-25T07:34:26.529Z,16.54
2019-04-25T07:37:34.926Z,16.82
2019-04-25T07:40:43.372Z,17.00
2019-04-25T07:43:50.111Z,16.95
2019-04-25T07:46:56.887Z,17.24
2019-04-25T07:50:04.090Z,17.21
2019-04-25T07:53:10.797Z,17.45
2019-04-25T07:56:19.056Z,17.41
2019-04-25T07:59:25.711Z,17.58
2019-04-25T08:02:33.819Z,17.89
2019-04-25T08:05:40.375Z,18.10
2019-04-25T08:08:47.034Z,18.23
2019-04-25T08:11:54.914Z,18.15
2019-04-25T08:15:09.345Z,18.08
2019-04-25T08:18:15.752Z,18.20
2019-04-25T08:21:23.893Z,18.42
2019-04-25T08:24:34.883Z,18.36
2019-04-25T08:27:44.994Z,18.60
2019-04-25T08:30:51.653Z,18.46
2019-04-25T08:33:58.178Z,18.97
2019-04-25T08:37:17.085Z,19.01
2019-04-25T08:40:14.102Z,19.19
2019-04-25T08:43:20.712Z,18.94
2019-04-25T08:46:27.517Z,19.49
2019-04-25T08:49:53.882Z,19.33
2019-04-25T08:53:01.469Z,19.77
2019-04-25T08:56:16.263Z,19.47
2019-04-25T08:59:45.624Z,19.59
2019-04-25T09:02:55.194Z,19.60
2019-04-25T09:06:03.357Z,20.01
2019-04-25T09:09:10.324Z,19.33
2019-04-25T09:12:16.801Z,19.93
2019-04-25T09:15:24.452Z,20.24
2019-04-25T09:18:31.034Z,20.33
2019-04-25T09:21:37.866Z,20.44
2019-04-25T09:24:45.359Z,20.47
2019-04-25T09:27:54.420Z,20.30
2019-04-25T09:31:01.113Z,20.33
2019-04-25T09:34:07.717Z,20.19
2019-04-25T09:37:14.351Z,20.46
2019-04-25T09:40:21.385Z,20.43
2019-04-25T09:43:28.193Z,21.15
2019-04-25T09:46:37.293Z,21.06
2019-04-25T09:49:46.288Z,21.32
2019-04-25T09:52:55.396Z,22.06
2019-04-25T09:56:07.042Z,21.16
2019-04-25T09:59:27.195Z,21.70
2019-04-25T10:02:28.780Z,21.83
2019-04-25T10:05:36.854Z,21.98
2019-04-25T11:09:36.208Z,23.32
2019-04-25T11:12:44.521Z,22.69
2019-04-25T11:15:52.040Z,23.72
2019-04-25T11:18:58.524Z,23.11
2019-04-25T11:22:05.303Z,23.87
2019-04-25T11:25:13.547Z,23.76
2019-04-25T11:28:19.797Z,24.20
2019-04-25T11:31:33.711Z,24.29
2019-04-25T11:34:40.407Z,23.52
2019-04-25T11:37:48.375Z,24.36
2019-04-25T11:41:00.960Z,24.76
2019-04-25T11:44:08.006Z,24.93
2019-04-25T11:47:15.508Z,25.01
2019-04-25T11:50:22.307Z,24.95
2019-04-25T11:53:28.883Z,24.90
2019-04-25T11:56:37.515Z,25.05
2019-04-25T11:59:45.206Z,25.47
2019-04-25T12:02:52.216Z,25.37
2019-04-25T12:05:58.700Z,25.42
2019-04-25T12:09:05.932Z,25.36
2019-04-25T12:12:14.507Z,25.21
2019-04-25T12:15:21.590Z,25.60
2019-04-25T12:18:27.933Z,25.52
2019-04-25T12:21:34.241Z,25.64
2019-04-25T12:24:41.393Z,25.04
2019-04-25T12:27:49.801Z,25.49
2019-04-25T12:30:56.520Z,25.74
2019-04-25T12:34:04.402Z,26.03
2019-04-25T12:37:10.766Z,25.59
2019-04-25T12:40:17.214Z,25.70
2019-04-25T12:43:25.435Z,25.37
2019-04-25T12:46:39.839Z,25.37
2019-04-25T12:49:46.730Z,24.99
2019-04-25T12:52:54.727Z,25.77
2019-04-25T12:56:01.265Z,25.00
2019-04-25T12:59:07.695Z,25.50
2019-04-25T13:02:14.389Z,25.08
2019-04-25T13:05:20.622Z,25.11
2019-04-25T13:08:26.805Z,25.92
2019-04-25T13:11:33.333Z,25.86
2019-04-25T13:14:40.972Z,25.85
2019-04-25T13:17:47.234Z,26.24
2019-04-25T13:20:55.147Z,25.43
2019-04-25T13:24:01.623Z,25.54
2019-04-25T13:27:16.752Z,25.82
2019-04-25T13:30:40.912Z,25.91
2019-04-25T13:33:57.352Z,26.18
2019-04-25T13:37:06.268Z,26.27
2019-04-25T13:40:15.958Z,25.77
2019-04-25T13:43:21.412Z,24.62
2019-04-25T13:46:29.062Z,25.54
2019-04-25T13:49:35.667Z,24.65
2019-04-25T13:52:43.179Z,25.92
2019-04-25T13:55:49.814Z,26.07
2019-04-25T13:58:57.135Z,25.38
2019-04-25T14:02:08.040Z,24.67
2019-04-25T14:05:14.696Z,25.53
2019-04-25T14:08:21.233Z,25.57
2019-04-25T14:11:28.672Z,25.59
2019-04-25T14:14:36.096Z,25.16
2019-04-25T14:18:00.159Z,25.14
2019-04-25T14:21:13.288Z,24.64
2019-04-25T14:24:20.480Z,24.64
2019-04-25T14:27:28.047Z,25.09
2019-04-25T14:30:35.957Z,25.49
2019-04-25T14:33:42.346Z,25.33
2019-04-25T14:36:48.626Z,25.48
2019-04-25T14:39:55.344Z,25.45
2019-04-25T14:43:02.571Z,24.96
2019-04-25T14:46:08.974Z,25.36
2019-04-25T14:49:15.207Z,25.49
2019-04-25T14:52:21.832Z,25.28
2019-04-25T14:55:40.252Z,25.31
2019-04-25T14:58:46.943Z,24.50
2019-04-25T15:01:53.506Z,24.83
2019-04-25T15:04:59.863Z,24.64
2019-04-25T15:08:06.415Z,24.69
2019-04-25T15:11:12.664Z,24.79
2019-04-25T15:14:18.970Z,24.52
2019-04-25T15:17:26.449Z,24.30
2019-04-25T15:20:33.126Z,24.11
2019-04-25T15:23:39.346Z,24.33
2019-04-25T15:26:45.688Z,24.36
2019-04-25T15:29:52.168Z,24.23
2019-04-25T15:33:00.094Z,24.41
2019-04-25T15:36:18.795Z,24.26
2019-04-25T15:39:43.275Z,24.12
2019-04-25T15:43:02.138Z,23.87
2019-04-25T15:46:27.975Z,23.72
2019-04-25T15:49:34.611Z,23.41
2019-04-25T15:52:40.805Z,23.64
2019-04-25T15:55:47.142Z,23.56
2019-04-25T15:58:53.534Z,23.55
2019-04-25T16:02:08.031Z,23.65
2019-04-25T16:05:08.325Z,23.64
2019-04-25T16:08:14.525Z,23.55
2019-04-25T16:11:21.655Z,23.55
2019-04-25T16:14:28.323Z,23.50
2019-04-25T16:17:37.132Z,23.40
2019-04-25T16:20:46.545Z,23.34
2019-04-25T16:23:52.794Z,23.22
2019-04-25T16:26:59.135Z,23.25
2019-04-25T16:30:06.199Z,23.24
2019-04-25T16:33:12.600Z,23.29
2019-04-25T16:36:19.088Z,23.30
2019-04-25T16:39:27.581Z,23.09
2019-04-25T16:42:34.316Z,23.02
2019-04-25T16:45:41.785Z,22.95
2019-04-25T16:48:48.285Z,22.96
2019-04-25T16:51:54.596Z,22.84
2019-04-25T16:55:00.945Z,22.78
2019-04-25T16:58:07.436Z,22.78
2019-04-25T17:01:14.880Z,22.64
2019-04-25T17:04:22.658Z,22.55
2019-04-25T17:07:30.392Z,22.63
2019-04-25T17:10:37.001Z,22.33
2019-04-25T17:13:49.545Z,22.38
2019-04-25T17:17:14.898Z,22.32
2019-04-25T17:20:23.773Z,22.22
2019-04-25T17:23:32.504Z,22.26
2019-04-25T17:26:39.484Z,21.95
2019-04-25T17:29:45.713Z,22.11
2019-04-25T17:33:23.318Z,21.95
2019-04-25T17:36:38.820Z,21.99
2019-04-25T17:39:47.949Z,21.88
2019-04-25T17:42:54.490Z,21.81
2019-04-25T17:46:01.850Z,21.69
2019-04-25T17:49:08.724Z,21.59
2019-04-25T17:52:15.321Z,21.44
2019-04-25T17:55:26.358Z,21.31
2019-04-25T17:58:34.574Z,21.26
2019-04-25T18:01:44.250Z,21.23
2019-04-25T18:04:51.824Z,21.14
2019-04-25T18:07:58.261Z,21.00
2019-04-25T18:11:07.369Z,20.97
2019-04-25T18:14:13.559Z,20.69
2019-04-25T18:17:20.436Z,20.56
2019-04-25T18:20:28.591Z,20.46
2019-04-25T18:24:12.436Z,20.57
2019-04-25T18:27:23.179Z,20.49
2019-04-25T18:30:29.725Z,20.35
2019-04-25T18:33:37.879Z,20.32
2019-04-25T18:36:51.438Z,20.36
2019-04-25T18:40:03.781Z,20.27
2019-04-25T18:43:39.820Z,20.29
2019-04-25T18:46:48.905Z,20.20
2019-04-25T18:49:55.576Z,20.02
2019-04-25T18:53:21.112Z,19.97
2019-04-25T18:56:49.853Z,19.92
2019-04-25T19:00:15.349Z,19.82
2019-04-25T19:03:43.706Z,19.73
2019-04-25T19:06:56.698Z,19.79
2019-04-25T19:09:58.650Z,19.64
2019-04-25T19:13:12.392Z,19.67
2019-04-25T19:16:14.677Z,19.56
2019-04-25T19:19:23.478Z,19.47
2019-04-25T19:22:30.051Z,19.38
2019-04-25T19:25:36.607Z,19.39
2019-04-25T19:28:43.462Z,19.36
2019-04-25T19:31:52.071Z,19.41
2019-04-25T19:34:58.079Z,19.32
2019-04-25T19:38:05.678Z,19.21
2019-04-25T19:41:23.657Z,19.13
2019-04-25T19:44:30.882Z,19.10
2019-04-25T19:47:38.260Z,19.15
2019-04-25T19:50:45.933Z,19.13
2019-04-25T19:53:52.625Z,19.11
2019-04-25T19:57:00.889Z,19.16
2019-04-25T20:00:09.597Z,19.17
2019-04-25T20:03:25.100Z,19.05
2019-04-25T20:06:49.893Z,19.11
2019-04-25T20:10:16.168Z,18.92
2019-04-25T20:13:23.717Z,18.83
2019-04-25T20:16:32.996Z,18.49
2019-04-25T20:19:39.603Z,18.70
2019-04-25T20:22:48.324Z,18.82
2019-04-25T20:25:57.326Z,18.79
2019-04-25T20:29:03.367Z,18.81
2019-04-25T20:32:11.079Z,18.89
2019-04-25T20:35:19.289Z,18.42
2019-04-25T20:38:25.775Z,18.57
2019-04-25T20:41:32.244Z,18.60
2019-04-25T20:44:38.757Z,18.55
2019-04-25T20:47:46.585Z,18.66
2019-04-25T20:50:54.523Z,18.57
2019-04-25T20:54:01.111Z,18.49
2019-04-25T20:57:07.891Z,18.54
2019-04-25T21:00:25.747Z,18.56
2019-04-25T21:03:32.514Z,18.64
2019-04-25T21:06:40.397Z,18.49
2019-04-25T21:09:47.442Z,18.48
2019-04-25T21:12:55.740Z,18.36
2019-04-25T21:16:29.678Z,18.44
2019-04-25T21:19:39.292Z,18.37
2019-04-25T21:22:45.869Z,18.36
2019-04-25T21:25:52.940Z,18.41
2019-04-25T21:28:59.619Z,18.36
2019-04-25T21:32:06.704Z,18.36
2019-04-25T21:35:13.842Z,18.36
2019-04-25T21:38:20.370Z,18.30
2019-04-25T21:42:05.287Z,18.29
2019-04-25T21:45:15.004Z,18.06
2019-04-25T21:48:22.257Z,18.04
2019-04-25T21:51:32.290Z,18.10
2019-04-25T21:54:39.291Z,18.22
2019-04-25T21:57:46.158Z,18.21
2019-04-25T22:01:12.933Z,18.23
2019-04-25T22:04:21.172Z,18.40
2019-04-25T22:07:28.097Z,18.26
2019-04-25T22:10:34.835Z,18.28
2019-04-25T22:13:41.499Z,18.31
2019-04-25T22:16:48.476Z,18.33
2019-04-25T22:19:55.636Z,18.29
2019-04-25T22:23:03.396Z,18.23
2019-04-25T22:26:10.169Z,18.09
2019-04-25T22:29:18.776Z,18.13
2019-04-25T22:32:32.385Z,18.14
2019-04-25T22:35:44.030Z,18.05
2019-04-25T22:39:11.210Z,18.01
2019-04-25T22:42:19.497Z,17.92
2019-04-25T22:45:25.990Z,17.86
2019-04-25T22:48:48.886Z,17.83
2019-04-25T22:51:55.662Z,17.91
2019-04-25T22:55:02.453Z,17.89
2019-04-25T22:58:09.867Z,17.77
2019-04-25T23:01:36.541Z,17.84
2019-04-25T23:05:14.406Z,17.83
2019-04-25T23:08:18.178Z,17.77
2019-04-25T23:11:24.847Z,17.70
2019-04-25T23:14:31.604Z,17.73
2019-04-25T23:17:38.213Z,17.70
2019-04-25T23:20:48.134Z,17.60
2019-04-25T23:23:54.837Z,17.67
2019-04-25T23:27:15.247Z,17.54
2019-04-25T23:30:24.212Z,17.58
2019-04-25T23:33:30.875Z,17.47
2019-04-25T23:36:37.585Z,17.51
2019-04-25T23:39:44.948Z,17.46
2019-04-25T23:42:53.151Z,17.44
2019-04-25T23:45:59.675Z,17.48
2019-04-25T23:49:08.825Z,17.44
2019-04-25T23:52:15.304Z,17.43
2019-04-25T23:55:22.166Z,17.38
2019-04-25T23:58:28.895Z,17.42
